Time;durP1;ratioP1;P1;durP2;ratioP2;P2;SDS_P1;SDS_P2;PMS_P1;PMS_P2;Temp;Humidity;BMP_temperature;BMP_pressure;BME280_temperature;BME280_humidity;BME280_pressure;Samples;Min_cycle;Max_cycle;Signal;HPM_P1;HPM_P2
2022/11/09 00:02:14;;;;;;;;;;;17.10;99.90;;;;;;5114624;28;19907;-92
2022/11/09 00:04:40;;;;;;;;;;;17.10;99.90;;;;;;5113795;28;19911;-91
2022/11/09 00:07:05;;;;;;;;;;;17.10;99.90;;;;;;5115544;28;20300;-90
2022/11/09 00:09:31;;;;;;;;;;;17.10;99.90;;;;;;5116109;28;20312;-91
2022/11/09 00:11:56;;;;;;;;;;;17.10;99.90;;;;;;5115957;28;19914;-91
2022/11/09 00:14:22;;;;;;;;;;;17.10;99.90;;;;;;5116683;28;19912;-91
2022/11/09 00:16:48;;;;;;;;;;;17.10;99.90;;;;;;5113243;28;19912;-91
2022/11/09 00:19:19;;;;;;;;;;;17.10;99.90;;;;;;5114512;28;19915;-90
2022/11/09 00:21:48;;;;;;;;;;;17.10;99.90;;;;;;5115051;28;19908;-91
2022/11/09 00:24:23;;;;;;;;;;;17.10;99.90;;;;;;5113249;28;19907;-91
2022/11/09 00:26:49;;;;;;;;;;;17.10;99.90;;;;;;5114826;28;20015;-91
2022/11/09 00:29:15;;;;;;;;;;;17.10;99.90;;;;;;5114417;28;20060;-91
2022/11/09 00:31:40;;;;;;;;;;;17.10;99.90;;;;;;5115626;28;20002;-90
2022/11/09 00:34:12;;;;;;;;;;;17.10;99.90;;;;;;5116014;28;19916;-91
2022/11/09 00:36:38;;;;;;;;;;;17.10;99.90;;;;;;5117146;28;20350;-91
2022/11/09 00:39:03;;;;;;;;;;;17.10;99.90;;;;;;5115672;28;19998;-91
2022/11/09 00:41:29;;;;;;;;;;;17.10;99.90;;;;;;5117319;28;19918;-91
2022/11/09 00:43:55;;;;;;;;;;;17.10;99.90;;;;;;5116412;28;19908;-90
2022/11/09 00:46:21;;;;;;;;;;;17.10;99.90;;;;;;5117418;28;20224;-91
2022/11/09 00:48:46;;;;;;;;;;;17.10;99.90;;;;;;5116499;28;20178;-90
2022/11/09 00:51:13;;;;;;;;;;;17.10;99.90;;;;;;5115909;28;20267;-90
2022/11/09 00:53:52;;;;;;;;;;;17.10;99.90;;;;;;5116395;28;19961;-91
2022/11/09 00:56:21;;;;;;;;;;;17.10;99.90;;;;;;5117022;28;19915;-91
2022/11/09 00:58:47;;;;;;;;;;;17.10;99.90;;;;;;5116103;28;19908;-90
2022/11/09 01:01:14;;;;;;;;;;;17.10;99.90;;;;;;5113725;28;19907;-91
2022/11/09 01:03:40;;;;;;;;;;;17.10;99.90;;;;;;5113287;28;19908;-91
2022/11/09 01:06:05;;;;;;;;;;;17.10;99.90;;;;;;5114754;28;19973;-91
2022/11/09 01:08:32;;;;;;;;;;;17.10;99.90;;;;;;5113863;28;19908;-91
2022/11/09 01:11:02;;;;;;;;;;;17.10;99.90;;;;;;5112852;28;19908;-91
2022/11/09 01:13:28;;;;;;;;;;;17.10;99.90;;;;;;5112963;28;20190;-91
2022/11/09 01:15:53;;;;;;;;;;;17.10;99.90;;;;;;5114210;28;19969;-91
2022/11/09 01:18:22;;;;;;;;;;;17.10;99.90;;;;;;5113688;28;20146;-91
2022/11/09 01:20:48;;;;;;;;;;;17.10;99.90;;;;;;5113801;28;19918;-90
2022/11/09 01:23:14;;;;;;;;;;;17.10;99.90;;;;;;5113790;28;20342;-90
2022/11/09 01:25:52;;;;;;;;;;;17.10;99.90;;;;;;5113748;28;19912;-89
2022/11/09 01:28:31;;;;;;;;;;;17.10;99.90;;;;;;5113216;28;19907;-90
2022/11/09 01:31:06;;;;;;;;;;;17.10;99.90;;;;;;5114470;28;20206;-91
2022/11/09 01:33:32;;;;;;;;;;;17.10;99.90;;;;;;5116312;28;19933;-90
2022/11/09 01:36:14;;;;;;;;;;;17.10;99.90;;;;;;5115108;28;20270;-91
2022/11/09 01:43:46;;;;;;;;;;;17.10;99.90;;;;;;5112656;28;20288;-11
2022/11/09 01:46:21;;;;;;;;;;;17.10;99.90;;;;;;5114753;28;19968;-11
2022/11/09 01:48:52;;;;;;;;;;;17.10;99.90;;;;;;5114501;28;20169;-11
2022/11/09 01:51:26;;;;;;;;;;;17.10;99.90;;;;;;5114082;28;20268;-11
2022/11/09 01:53:55;;;;;;;;;;;17.10;99.90;;;;;;5114329;28;19912;-11
2022/11/09 01:56:21;;;;;;;;;;;17.10;99.90;;;;;;5114305;28;19956;-11
2022/11/09 01:58:52;;;;;;;;;;;17.10;99.90;;;;;;5094960;28;19916;-11
2022/11/09 02:01:20;;;;;;;;;;;17.10;99.90;;;;;;5113567;28;20316;-11
2022/11/09 02:03:49;;;;;;;;;;;17.10;99.90;;;;;;5095074;28;20018;-11
2022/11/09 02:06:16;;;;;;;;;;;17.10;99.90;;;;;;5116159;28;20312;-11
2022/11/09 02:08:46;;;;;;;;;;;17.10;99.90;;;;;;5115522;28;19918;-11
2022/11/09 02:11:15;;;;;;;;;;;17.10;99.90;;;;;;5114946;28;19989;-11
2022/11/09 02:13:42;;;;;;;;;;;17.10;99.90;;;;;;5118300;28;19919;-11
2022/11/09 02:16:09;;;;;;;;;;;17.10;99.90;;;;;;5102993;28;19922;-11
2022/11/09 02:18:35;;;;;;;;;;;17.10;99.90;;;;;;5120541;28;19908;-11
2022/11/09 02:21:06;;;;;;;;;;;17.10;99.90;;;;;;5116109;28;19961;-11
2022/11/09 02:23:41;;;;;;;;;;;17.10;99.90;;;;;;5113045;28;20136;-11
2022/11/09 02:26:09;;;;;;;;;;;17.10;99.90;;;;;;5114551;28;20015;-11
2022/11/09 02:28:37;;;;;;;;;;;17.10;99.90;;;;;;5114160;28;19908;-11
2022/11/09 02:31:04;;;;;;;;;;;17.10;99.90;;;;;;5114000;28;19918;-11
2022/11/09 02:33:39;;;;;;;;;;;17.00;99.90;;;;;;5094921;28;19973;-11
2022/11/09 02:36:04;;;;;;;;;;;17.10;99.90;;;;;;5098176;28;19908;-11
2022/11/09 02:38:30;;;;;;;;;;;17.10;99.90;;;;;;5115481;28;19908;-11
2022/11/09 02:40:55;;;;;;;;;;;17.10;99.90;;;;;;5115428;28;19908;-11
2022/11/09 02:43:21;;;;;;;;;;;17.10;99.90;;;;;;5117053;28;19916;-11
2022/11/09 02:45:47;;;;;;;;;;;17.10;99.90;;;;;;5116981;28;19919;-11
2022/11/09 02:48:12;;;;;;;;;;;17.10;99.90;;;;;;5117921;28;19935;-11
2022/11/09 02:50:38;;;;;;;;;;;17.10;99.90;;;;;;5117144;28;19912;-11
2022/11/09 02:53:03;;;;;;;;;;;17.10;99.90;;;;;;5117979;28;19915;-11
2022/11/09 02:55:29;;;;;;;;;;;17.10;99.90;;;;;;5118051;28;19908;-11
2022/11/09 02:57:54;;;;;;;;;;;17.10;99.90;;;;;;5117660;28;19908;-11
2022/11/09 03:00:20;;;;;;;;;;;17.00;99.90;;;;;;5118001;28;19915;-11
2022/11/09 03:02:46;;;;;;;;;;;17.00;99.90;;;;;;5099967;28;19916;-11
2022/11/09 03:05:11;;;;;;;;;;;17.00;99.90;;;;;;5115553;28;20225;-11
2022/11/09 03:07:37;;;;;;;;;;;17.00;99.90;;;;;;5117851;28;20281;-11
2022/11/09 03:10:03;;;;;;;;;;;17.00;99.90;;;;;;5118290;28;19916;-11
2022/11/09 03:12:28;;;;;;;;;;;17.00;99.90;;;;;;5118231;28;20366;-11
2022/11/09 03:14:58;;;;;;;;;;;17.00;99.90;;;;;;5099297;28;20191;-11
2022/11/09 03:17:23;;;;;;;;;;;17.00;99.90;;;;;;5117603;28;19908;-11
2022/11/09 03:19:49;;;;;;;;;;;17.00;99.90;;;;;;5119736;28;19914;-11
2022/11/09 03:22:15;;;;;;;;;;;17.00;99.90;;;;;;5099907;28;20170;-11
2022/11/09 03:24:40;;;;;;;;;;;17.00;99.90;;;;;;5117256;28;19908;-11
2022/11/09 03:27:06;;;;;;;;;;;17.00;99.90;;;;;;5119240;28;19908;-11
2022/11/09 03:29:32;;;;;;;;;;;17.00;99.90;;;;;;5101489;28;20292;-11
2022/11/09 03:31:58;;;;;;;;;;;17.00;99.90;;;;;;5101558;28;20008;-11
2022/11/09 03:34:23;;;;;;;;;;;17.00;99.90;;;;;;5118331;28;19979;-11
2022/11/09 03:36:49;;;;;;;;;;;17.00;99.90;;;;;;5101021;28;19916;-11
2022/11/09 03:39:14;;;;;;;;;;;17.00;99.90;;;;;;5100457;28;19908;-11
2022/11/09 03:41:40;;;;;;;;;;;17.00;99.90;;;;;;5100096;28;19908;-11
2022/11/09 03:44:06;;;;;;;;;;;17.00;99.90;;;;;;5118351;28;19974;-11
2022/11/09 03:46:31;;;;;;;;;;;17.00;99.90;;;;;;5118159;28;19908;-11
2022/11/09 03:48:57;;;;;;;;;;;17.10;99.90;;;;;;5118547;28;19908;-11
2022/11/09 03:51:22;;;;;;;;;;;17.00;99.90;;;;;;5118650;28;19951;-11
2022/11/09 03:53:48;;;;;;;;;;;17.10;99.90;;;;;;5100963;28;19922;-11
2022/11/09 03:56:14;;;;;;;;;;;17.10;99.90;;;;;;5100547;28;19908;-11
2022/11/09 03:58:39;;;;;;;;;;;17.10;99.90;;;;;;5100748;28;20099;-11
2022/11/09 04:01:05;;;;;;;;;;;17.20;99.90;;;;;;5099927;28;20335;-11
2022/11/09 04:03:30;;;;;;;;;;;17.20;99.90;;;;;;5099465;28;19934;-11
2022/11/09 04:05:59;;;;;;;;;;;17.20;99.90;;;;;;5098732;28;19919;-11
2022/11/09 04:08:25;;;;;;;;;;;17.20;99.90;;;;;;5117004;28;19916;-11
2022/11/09 04:10:50;;;;;;;;;;;17.20;99.90;;;;;;5116233;28;20321;-11
2022/11/09 04:13:16;;;;;;;;;;;17.20;99.90;;;;;;5098834;28;20410;-11
2022/11/09 04:15:42;;;;;;;;;;;17.20;99.90;;;;;;5099545;28;19908;-11
2022/11/09 04:18:10;;;;;;;;;;;17.20;99.90;;;;;;5116879;28;19912;-11
2022/11/09 04:20:35;;;;;;;;;;;17.20;99.90;;;;;;5098412;28;19908;-11
2022/11/09 04:23:02;;;;;;;;;;;17.20;99.90;;;;;;5116061;28;19914;-11
2022/11/09 04:25:30;;;;;;;;;;;17.20;99.90;;;;;;5116110;28;19952;-11
2022/11/09 04:27:56;;;;;;;;;;;17.20;99.90;;;;;;5114890;28;20001;-11
2022/11/09 04:30:23;;;;;;;;;;;17.20;99.90;;;;;;5115687;28;19916;-11
2022/11/09 04:32:48;;;;;;;;;;;17.20;99.90;;;;;;5097408;28;19915;-11
2022/11/09 04:35:14;;;;;;;;;;;17.20;99.90;;;;;;5116203;28;19918;-11
2022/11/09 04:37:40;;;;;;;;;;;17.20;99.90;;;;;;5115820;28;19967;-11
2022/11/09 04:40:05;;;;;;;;;;;17.20;99.90;;;;;;5114419;28;19908;-11
2022/11/09 04:42:31;;;;;;;;;;;17.20;99.90;;;;;;5096359;28;20090;-11
2022/11/09 04:44:57;;;;;;;;;;;17.20;99.90;;;;;;5097010;28;20002;-11
2022/11/09 04:47:22;;;;;;;;;;;17.20;99.90;;;;;;5098322;28;19914;-11
2022/11/09 04:49:48;;;;;;;;;;;17.20;99.90;;;;;;5098446;28;20561;-11
2022/11/09 04:52:13;;;;;;;;;;;17.20;99.90;;;;;;5097280;28;20355;-11
2022/11/09 04:54:39;;;;;;;;;;;17.20;99.90;;;;;;5116243;28;19915;-11
2022/11/09 04:57:04;;;;;;;;;;;17.20;99.90;;;;;;5097347;28;20007;-11
2022/11/09 04:59:30;;;;;;;;;;;17.20;99.90;;;;;;5097745;28;19908;-11
2022/11/09 05:01:56;;;;;;;;;;;17.10;99.90;;;;;;5097285;28;19915;-11
2022/11/09 05:04:21;;;;;;;;;;;17.10;99.90;;;;;;5096885;28;19907;-11
2022/11/09 05:06:47;;;;;;;;;;;17.10;99.90;;;;;;5113953;28;19919;-11
2022/11/09 05:09:12;;;;;;;;;;;17.10;99.90;;;;;;5095615;28;20378;-11
2022/11/09 05:11:38;;;;;;;;;;;17.10;99.90;;;;;;5095403;28;19907;-11
2022/11/09 05:14:03;;;;;;;;;;;17.10;99.90;;;;;;5096524;28;19923;-11
2022/11/09 05:16:29;;;;;;;;;;;17.10;99.90;;;;;;5114181;28;19969;-11
2022/11/09 05:18:54;;;;;;;;;;;17.10;99.90;;;;;;5113076;28;19908;-11
2022/11/09 05:21:20;;;;;;;;;;;17.10;99.90;;;;;;5113515;28;20285;-11
2022/11/09 05:23:58;;;;;;;;;;;17.10;99.90;;;;;;5113806;28;19915;-11
2022/11/09 05:26:25;;;;;;;;;;;17.10;99.90;;;;;;5114740;28;20233;-11
2022/11/09 05:28:51;;;;;;;;;;;17.10;99.90;;;;;;5095731;28;19908;-11
2022/11/09 05:31:17;;;;;;;;;;;17.10;99.90;;;;;;5095280;28;20047;-11
2022/11/09 05:33:43;;;;;;;;;;;17.10;99.90;;;;;;5112064;28;20338;-11
2022/11/09 05:36:08;;;;;;;;;;;17.00;99.90;;;;;;5093091;28;20255;-11
2022/11/09 05:38:34;;;;;;;;;;;17.10;99.90;;;;;;5090559;28;20216;-11
2022/11/09 05:41:00;;;;;;;;;;;17.10;99.90;;;;;;5108760;28;19920;-11
2022/11/09 05:43:25;;;;;;;;;;;17.00;99.90;;;;;;5091746;28;20161;-11
2022/11/09 05:45:51;;;;;;;;;;;17.10;99.90;;;;;;5110276;28;19908;-11
2022/11/09 05:48:16;;;;;;;;;;;17.00;99.90;;;;;;5094007;28;20200;-11
2022/11/09 05:50:43;;;;;;;;;;;17.10;99.90;;;;;;5116117;28;19954;-11
2022/11/09 05:53:10;;;;;;;;;;;17.00;99.90;;;;;;5097234;28;20269;-11
2022/11/09 05:55:35;;;;;;;;;;;17.10;99.90;;;;;;5096657;28;20379;-11
2022/11/09 05:58:01;;;;;;;;;;;17.00;99.90;;;;;;5116285;28;19908;-11
2022/11/09 06:00:26;;;;;;;;;;;17.00;99.90;;;;;;5124679;22;19892;-13
2022/11/09 06:02:52;;;;;;;;;;;17.00;99.90;;;;;;5116978;27;19991;-11
2022/11/09 06:05:19;;;;;;;;;;;17.00;99.90;;;;;;5136743;27;19943;-11
2022/11/09 06:07:45;;;;;;;;;;;17.00;99.90;;;;;;5136112;27;19907;-11
2022/11/09 06:10:10;;;;;;;;;;;17.00;99.90;;;;;;5136714;27;20178;-11
2022/11/09 06:12:36;;;;;;;;;;;17.00;99.90;;;;;;5134201;27;19994;-11
2022/11/09 06:15:03;;;;;;;;;;;17.00;99.90;;;;;;5133210;27;20022;-11
2022/11/09 06:17:28;;;;;;;;;;;17.00;99.90;;;;;;5115022;27;19915;-11
2022/11/09 06:19:54;;;;;;;;;;;17.00;99.90;;;;;;5133477;27;20292;-11
2022/11/09 06:22:19;;;;;;;;;;;17.00;99.90;;;;;;5117271;27;19907;-11
2022/11/09 06:24:45;;;;;;;;;;;17.00;99.90;;;;;;5135418;27;19918;-11
2022/11/09 06:27:11;;;;;;;;;;;17.00;99.90;;;;;;5132194;27;19911;-11
2022/11/09 06:29:36;;;;;;;;;;;17.00;99.90;;;;;;5132086;27;19907;-11
2022/11/09 06:32:02;;;;;;;;;;;17.00;99.90;;;;;;5133228;27;19915;-11
2022/11/09 06:34:29;;;;;;;;;;;17.00;99.90;;;;;;5131793;27;19918;-11
2022/11/09 06:36:54;;;;;;;;;;;17.00;99.90;;;;;;5133591;27;19908;-11
2022/11/09 06:39:20;;;;;;;;;;;17.00;99.90;;;;;;5132611;27;20021;-11
2022/11/09 06:41:45;;;;;;;;;;;16.90;99.90;;;;;;5131277;27;20316;-11
2022/11/09 06:44:11;;;;;;;;;;;17.00;99.90;;;;;;5130179;27;19918;-11
2022/11/09 06:46:37;;;;;;;;;;;16.90;99.90;;;;;;5131475;27;19915;-11
2022/11/09 06:49:02;;;;;;;;;;;17.00;99.90;;;;;;5131406;27;20002;-11
2022/11/09 06:51:28;;;;;;;;;;;16.90;99.90;;;;;;5134095;27;19908;-11
2022/11/09 06:53:54;;;;;;;;;;;17.00;99.90;;;;;;5115607;27;20026;-11
2022/11/09 06:56:19;;;;;;;;;;;17.00;99.90;;;;;;5133686;27;19979;-11
2022/11/09 06:58:45;;;;;;;;;;;17.00;99.90;;;;;;5114927;27;19943;-11
2022/11/09 07:01:11;;;;;;;;;;;17.00;99.90;;;;;;5131968;27;19926;-11
2022/11/09 07:03:37;;;;;;;;;;;17.00;99.90;;;;;;5132017;27;19957;-11
2022/11/09 07:06:04;;;;;;;;;;;17.00;99.90;;;;;;5113904;27;20092;-11
2022/11/09 07:08:30;;;;;;;;;;;17.00;99.90;;;;;;5131578;27;20087;-11
2022/11/09 07:11:01;;;;;;;;;;;17.00;99.90;;;;;;5131737;27;19934;-11
2022/11/09 07:13:26;;;;;;;;;;;17.10;99.90;;;;;;5131902;27;19907;-11
2022/11/09 07:15:53;;;;;;;;;;;17.10;99.90;;;;;;5129818;27;20280;-11
2022/11/09 07:18:19;;;;;;;;;;;17.10;99.90;;;;;;5130509;27;19907;-11
2022/11/09 07:20:44;;;;;;;;;;;17.10;99.90;;;;;;5130633;27;20146;-11
2022/11/09 07:23:10;;;;;;;;;;;17.10;99.90;;;;;;5113149;27;19959;-11
2022/11/09 07:25:35;;;;;;;;;;;17.10;99.90;;;;;;5130411;27;20102;-11
2022/11/09 07:28:03;;;;;;;;;;;17.10;99.90;;;;;;5130000;27;19918;-11
2022/11/09 07:30:29;;;;;;;;;;;17.10;99.90;;;;;;5109218;27;19972;-11
2022/11/09 07:32:56;;;;;;;;;;;17.10;99.90;;;;;;5129438;27;19907;-11
2022/11/09 07:35:22;;;;;;;;;;;17.10;99.90;;;;;;5111961;27;19938;-11
2022/11/09 07:37:48;;;;;;;;;;;17.10;99.90;;;;;;5130785;27;19907;-11
2022/11/09 07:40:13;;;;;;;;;;;17.10;99.90;;;;;;5129668;27;19907;-11
2022/11/09 07:42:39;;;;;;;;;;;17.20;99.90;;;;;;5111876;27;20009;-11
2022/11/09 07:45:05;;;;;;;;;;;17.20;99.90;;;;;;5129644;27;19994;-11
2022/11/09 07:47:30;;;;;;;;;;;17.20;99.90;;;;;;5129054;27;19912;-11
2022/11/09 07:49:56;;;;;;;;;;;17.20;99.90;;;;;;5131517;27;20035;-11
2022/11/09 07:52:21;;;;;;;;;;;17.30;99.90;;;;;;5130139;27;20202;-11
2022/11/09 07:54:47;;;;;;;;;;;17.30;99.90;;;;;;5127004;27;19911;-11
2022/11/09 07:57:12;;;;;;;;;;;17.30;99.90;;;;;;5127849;27;19966;-11
2022/11/09 07:59:38;;;;;;;;;;;17.30;99.90;;;;;;5129170;27;20167;-11
2022/11/09 08:02:04;;;;;;;;;;;17.30;99.90;;;;;;5129362;27;19915;-11
2022/11/09 08:04:29;;;;;;;;;;;17.40;99.90;;;;;;5128421;27;19907;-11
2022/11/09 08:06:55;;;;;;;;;;;17.50;99.90;;;;;;5128880;27;19907;-11
2022/11/09 08:09:21;;;;;;;;;;;17.50;99.90;;;;;;5130373;27;19908;-11
2022/11/09 08:11:46;;;;;;;;;;;17.80;99.90;;;;;;5132373;27;19913;-11
2022/11/09 08:14:12;;;;;;;;;;;18.10;99.90;;;;;;5131704;27;19912;-11
2022/11/09 08:16:38;;;;;;;;;;;18.30;99.90;;;;;;5132152;27;19907;-11
2022/11/09 08:19:04;;;;;;;;;;;18.20;99.90;;;;;;5131240;27;19911;-11
2022/11/09 08:21:29;;;;;;;;;;;18.00;99.90;;;;;;5130125;27;20269;-11
2022/11/09 08:23:55;;;;;;;;;;;17.90;99.90;;;;;;5115147;28;19908;-11
2022/11/09 08:26:20;;;;;;;;;;;18.10;99.90;;;;;;5118565;28;19973;-11
2022/11/09 08:28:46;;;;;;;;;;;18.80;99.60;;;;;;5114729;28;20148;-11
2022/11/09 08:31:11;;;;;;;;;;;19.20;98.20;;;;;;5106904;28;19908;-11
2022/11/09 08:33:40;;;;;;;;;;;19.40;97.30;;;;;;5106492;28;19908;-11
2022/11/09 08:36:13;;;;;;;;;;;19.70;96.60;;;;;;5107706;28;20324;-11
2022/11/09 08:38:39;;;;;;;;;;;20.10;95.70;;;;;;5089561;28;19914;-12
2022/11/09 08:41:04;;;;;;;;;;;20.10;94.90;;;;;;5106025;28;19907;-12
2022/11/09 08:43:30;;;;;;;;;;;20.10;94.70;;;;;;5089405;28;19908;-12
2022/11/09 08:45:56;;;;;;;;;;;19.80;95.20;;;;;;5107449;28;19915;-12
2022/11/09 08:48:21;;;;;;;;;;;20.00;95.30;;;;;;5105171;28;19908;-12
2022/11/09 08:50:50;;;;;;;;;;;20.50;94.10;;;;;;5089338;28;20149;-12
2022/11/09 08:53:16;;;;;;;;;;;20.60;93.20;;;;;;5091462;28;19907;-12
2022/11/09 08:55:42;;;;;;;;;;;21.20;92.20;;;;;;5109388;28;19922;-12
2022/11/09 08:58:08;;;;;;;;;;;21.70;90.50;;;;;;5107745;28;20189;-12
2022/11/09 09:00:34;;;;;;;;;;;21.90;88.80;;;;;;5091028;28;20128;-12
2022/11/09 09:03:02;;;;;;;;;;;22.30;86.70;;;;;;5108242;28;20001;-12
2022/11/09 09:05:28;;;;;;;;;;;22.50;83.80;;;;;;5108392;28;20216;-12
2022/11/09 09:07:53;;;;;;;;;;;22.70;83.30;;;;;;5106040;28;20026;-12
2022/11/09 09:10:19;;;;;;;;;;;23.20;79.60;;;;;;5108154;28;19919;-12
2022/11/09 09:12:44;;;;;;;;;;;23.40;77.50;;;;;;5108574;28;19943;-12
2022/11/09 09:15:10;;;;;;;;;;;23.50;76.40;;;;;;5088948;28;20029;-12
2022/11/09 09:17:36;;;;;;;;;;;23.40;76.50;;;;;;5105797;28;19907;-12
2022/11/09 09:20:02;;;;;;;;;;;22.90;78.10;;;;;;5107333;28;19908;-12
2022/11/09 09:22:28;;;;;;;;;;;22.70;78.50;;;;;;5107033;28;19998;-12
2022/11/09 09:24:54;;;;;;;;;;;22.40;80.00;;;;;;5107958;28;20237;-12
2022/11/09 09:27:20;;;;;;;;;;;22.30;80.60;;;;;;5109176;28;19961;-12
2022/11/09 09:29:45;;;;;;;;;;;22.20;81.10;;;;;;5107449;28;19908;-12
2022/11/09 09:32:11;;;;;;;;;;;22.00;82.50;;;;;;5109294;28;20018;-12
2022/11/09 09:34:36;;;;;;;;;;;21.80;84.10;;;;;;5090551;28;19927;-12
2022/11/09 09:37:02;;;;;;;;;;;21.50;85.80;;;;;;5112807;28;19908;-12
2022/11/09 09:39:27;;;;;;;;;;;21.40;87.30;;;;;;5093307;28;19973;-12
2022/11/09 09:41:54;;;;;;;;;;;21.20;88.60;;;;;;5110316;28;19915;-12
2022/11/09 09:44:33;;;;;;;;;;;21.10;89.90;;;;;;5109806;28;19999;-12
2022/11/09 09:47:12;;;;;;;;;;;21.00;90.30;;;;;;5109950;28;19914;-12
2022/11/09 09:49:41;;;;;;;;;;;20.90;90.70;;;;;;5108647;28;19919;-12
2022/11/09 09:52:19;;;;;;;;;;;20.90;91.00;;;;;;5107465;28;19934;-12
2022/11/09 09:54:53;;;;;;;;;;;20.90;91.30;;;;;;5107870;28;20220;-12
2022/11/09 09:57:19;;;;;;;;;;;20.80;91.50;;;;;;5108500;28;19918;-12
2022/11/09 09:59:49;;;;;;;;;;;20.70;91.70;;;;;;5107007;28;19912;-12
2022/11/09 10:02:17;;;;;;;;;;;20.70;91.90;;;;;;5109949;28;20012;-12
2022/11/09 10:04:43;;;;;;;;;;;20.60;92.20;;;;;;5111032;28;19915;-12
2022/11/09 10:07:12;;;;;;;;;;;20.50;92.40;;;;;;5110675;28;19908;-12
2022/11/09 10:09:38;;;;;;;;;;;20.40;92.60;;;;;;5091057;28;20143;-12
2022/11/09 10:12:22;;;;;;;;;;;20.40;92.80;;;;;;5089421;28;19919;-12
2022/11/09 10:15:17;;;;;;;;;;;20.30;92.80;;;;;;5108383;28;19911;-12
2022/11/09 10:17:55;;;;;;;;;;;20.30;92.90;;;;;;5095482;28;19915;-12
2022/11/09 10:20:50;;;;;;;;;;;20.30;93.00;;;;;;5090278;28;19908;-12
2022/11/09 10:23:27;;;;;;;;;;;20.30;92.80;;;;;;5051128;28;19967;-12
2022/11/09 10:25:56;;;;;;;;;;;20.20;92.70;;;;;;5105819;28;20043;-12
2022/11/09 10:28:25;;;;;;;;;;;20.10;92.70;;;;;;5107196;28;20285;-12
2022/11/09 10:30:51;;;;;;;;;;;20.10;92.70;;;;;;5106395;28;19908;-12
2022/11/09 10:33:20;;;;;;;;;;;20.10;92.60;;;;;;5105473;28;19908;-12
2022/11/09 10:36:04;;;;;;;;;;;20.00;92.70;;;;;;5090792;28;20146;-12
2022/11/09 10:38:34;;;;;;;;;;;20.00;92.70;;;;;;5093249;28;19907;-12
2022/11/09 10:41:01;;;;;;;;;;;19.90;92.60;;;;;;5107874;28;19929;-12
2022/11/09 10:43:27;;;;;;;;;;;19.90;92.60;;;;;;5110518;28;19931;-12
2022/11/09 10:45:58;;;;;;;;;;;19.80;92.90;;;;;;5110850;28;19920;-12
2022/11/09 10:48:34;;;;;;;;;;;19.80;92.70;;;;;;5093335;28;20276;-12
2022/11/09 10:51:00;;;;;;;;;;;19.80;92.70;;;;;;5105184;28;19945;-12
2022/11/09 10:53:27;;;;;;;;;;;19.70;92.80;;;;;;5093694;28;19907;-12
2022/11/09 10:55:53;;;;;;;;;;;19.70;92.90;;;;;;5093606;28;19908;-12
2022/11/09 10:58:29;;;;;;;;;;;19.70;92.90;;;;;;5093185;28;20269;-12
2022/11/09 11:00:57;;;;;;;;;;;19.70;92.90;;;;;;5093875;28;20039;-12
2022/11/09 11:03:23;;;;;;;;;;;19.60;93.10;;;;;;5111410;28;19947;-12
2022/11/09 11:05:57;;;;;;;;;;;19.60;93.20;;;;;;5112790;28;19958;-12
2022/11/09 11:08:27;;;;;;;;;;;19.60;93.30;;;;;;5077370;28;19912;-12
2022/11/09 11:11:05;;;;;;;;;;;19.60;93.20;;;;;;5092816;28;19907;-12
2022/11/09 11:13:30;;;;;;;;;;;19.70;93.10;;;;;;5110789;28;20197;-12
2022/11/09 11:15:57;;;;;;;;;;;19.70;93.10;;;;;;5109761;28;20327;-12
2022/11/09 11:18:24;;;;;;;;;;;19.70;93.00;;;;;;5110323;28;19908;-12
2022/11/09 11:21:13;;;;;;;;;;;19.70;93.00;;;;;;5091916;28;19915;-12
2022/11/09 11:23:38;;;;;;;;;;;19.70;92.90;;;;;;5100600;28;19957;-12
2022/11/09 11:26:10;;;;;;;;;;;19.70;92.80;;;;;;5108930;28;19915;-12
2022/11/09 11:28:41;;;;;;;;;;;19.70;92.80;;;;;;5091091;28;20063;-12
2022/11/09 11:31:11;;;;;;;;;;;19.70;92.70;;;;;;5109202;28;20014;-12
2022/11/09 11:33:37;;;;;;;;;;;19.70;92.70;;;;;;5109823;28;19919;-12
2022/11/09 11:36:03;;;;;;;;;;;19.70;92.60;;;;;;5108791;28;19911;-12
2022/11/09 11:38:35;;;;;;;;;;;19.60;92.60;;;;;;5108757;28;19908;-12
2022/11/09 11:41:03;;;;;;;;;;;19.60;92.50;;;;;;5108422;28;19947;-12
2022/11/09 11:43:48;;;;;;;;;;;19.60;92.40;;;;;;5091452;28;19919;-12
2022/11/09 11:46:37;;;;;;;;;;;19.60;92.30;;;;;;5108583;28;19918;-12
2022/11/09 11:49:21;;;;;;;;;;;19.60;92.20;;;;;;5110057;28;20230;-12
2022/11/09 11:52:05;;;;;;;;;;;19.60;92.10;;;;;;5091307;28;19907;-12
2022/11/09 11:54:45;;;;;;;;;;;19.60;91.90;;;;;;5097984;27;19915;-12
2022/11/09 11:57:23;;;;;;;;;;;19.60;91.90;;;;;;5138559;27;19926;-12
2022/11/09 11:59:52;;;;;;;;;;;19.60;91.90;;;;;;5136701;27;19915;-12
2022/11/09 12:02:36;;;;;;;;;;;19.60;91.70;;;;;;5130136;27;19915;-12
2022/11/09 12:05:04;;;;;;;;;;;19.60;91.60;;;;;;5129996;27;19916;-12
2022/11/09 12:07:38;;;;;;;;;;;19.60;91.50;;;;;;5127813;27;19960;-12
2022/11/09 12:10:22;;;;;;;;;;;19.70;91.40;;;;;;5128005;27;19964;-12
2022/11/09 12:12:53;;;;;;;;;;;19.60;91.40;;;;;;5128232;27;19916;-12
2022/11/09 12:15:22;;;;;;;;;;;19.60;91.40;;;;;;5127723;27;19918;-12
2022/11/09 12:17:58;;;;;;;;;;;19.60;91.40;;;;;;5109016;27;19908;-12
2022/11/09 12:20:28;;;;;;;;;;;19.60;91.30;;;;;;5127331;27;19908;-12
2022/11/09 12:23:02;;;;;;;;;;;19.60;91.40;;;;;;5127200;27;19938;-12
2022/11/09 12:25:28;;;;;;;;;;;19.60;91.60;;;;;;5127258;27;19908;-12
2022/11/09 12:28:01;;;;;;;;;;;19.50;92.00;;;;;;5128417;27;19908;-12
2022/11/09 12:30:39;;;;;;;;;;;19.50;92.40;;;;;;5129280;27;19919;-12
2022/11/09 12:33:23;;;;;;;;;;;19.50;92.80;;;;;;5129453;27;19943;-12
2022/11/09 12:35:59;;;;;;;;;;;19.50;92.70;;;;;;5127750;27;19911;-12
2022/11/09 12:38:38;;;;;;;;;;;19.50;92.60;;;;;;5128846;27;20121;-12
2022/11/09 12:41:11;;;;;;;;;;;19.50;92.00;;;;;;5127211;27;20026;-11
2022/11/09 12:43:40;;;;;;;;;;;19.50;91.70;;;;;;5126330;27;19907;-11
2022/11/09 12:46:06;;;;;;;;;;;19.50;91.00;;;;;;5126545;27;20083;-11
2022/11/09 12:48:34;;;;;;;;;;;19.50;91.00;;;;;;5108285;27;19969;-11
2022/11/09 12:51:00;;;;;;;;;;;19.40;91.10;;;;;;5109041;27;20005;-11
2022/11/09 12:53:31;;;;;;;;;;;19.40;91.20;;;;;;5129241;27;19907;-11
2022/11/09 12:56:00;;;;;;;;;;;19.40;91.50;;;;;;5127609;27;19911;-11
2022/11/09 12:58:30;;;;;;;;;;;19.30;91.70;;;;;;5108599;27;19907;-11
2022/11/09 13:01:00;;;;;;;;;;;19.30;91.90;;;;;;5127206;27;20077;-11
2022/11/09 13:03:30;;;;;;;;;;;19.20;91.90;;;;;;5128354;27;19917;-12
2022/11/09 13:06:16;;;;;;;;;;;19.20;92.10;;;;;;5128122;27;19994;-11
2022/11/09 13:08:44;;;;;;;;;;;19.20;92.20;;;;;;5108921;27;20475;-11
2022/11/09 13:11:20;;;;;;;;;;;19.10;92.30;;;;;;5128125;27;20188;-11
2022/11/09 13:13:45;;;;;;;;;;;19.10;92.40;;;;;;5129799;28;20068;-11
2022/11/09 13:16:43;;;;;;;;;;;19.00;92.50;;;;;;5127073;27;19961;-11
2022/11/09 13:19:09;;;;;;;;;;;19.00;92.50;;;;;;5080929;28;20001;-11
2022/11/09 13:21:35;;;;;;;;;;;19.00;92.60;;;;;;5126074;28;20161;-11
2022/11/09 13:24:31;;;;;;;;;;;19.00;92.70;;;;;;5127327;28;19908;-11
2022/11/09 13:26:58;;;;;;;;;;;18.90;92.70;;;;;;5090800;28;20213;-12
2022/11/09 13:29:25;;;;;;;;;;;18.90;92.80;;;;;;5143628;27;20260;-11
2022/11/09 13:31:58;;;;;;;;;;;18.90;92.90;;;;;;5126605;28;20147;-11
2022/11/09 13:34:39;;;;;;;;;;;18.80;92.90;;;;;;5125713;28;19912;-11
2022/11/09 13:37:26;;;;;;;;;;;18.80;92.90;;;;;;5126243;28;19915;-11
2022/11/09 13:39:51;;;;;;;;;;;18.80;93.00;;;;;;5108895;28;19916;-11
2022/11/09 13:42:23;;;;;;;;;;;18.80;92.90;;;;;;5106958;28;19907;-11
2022/11/09 13:44:48;;;;;;;;;;;18.80;93.00;;;;;;5103367;28;19915;-11
2022/11/09 13:47:21;;;;;;;;;;;18.80;93.00;;;;;;5102693;28;20170;-11
2022/11/09 13:49:49;;;;;;;;;;;18.80;93.10;;;;;;5105193;28;19907;-11
2022/11/09 13:52:34;;;;;;;;;;;18.80;93.20;;;;;;5106961;28;19918;-11
2022/11/09 13:54:59;;;;;;;;;;;18.70;93.10;;;;;;5107002;28;19911;-11
2022/11/09 13:57:25;;;;;;;;;;;18.70;93.20;;;;;;5105813;28;19918;-11
2022/11/09 13:59:51;;;;;;;;;;;18.70;93.30;;;;;;5086318;28;19914;-11
2022/11/09 14:02:17;;;;;;;;;;;18.70;93.30;;;;;;5105338;28;19999;-11
2022/11/09 14:04:42;;;;;;;;;;;18.70;93.30;;;;;;5105963;28;20320;-11
2022/11/09 14:07:21;;;;;;;;;;;18.70;93.40;;;;;;5105033;28;19984;-11
2022/11/09 14:10:06;;;;;;;;;;;18.70;93.50;;;;;;5106492;28;20148;-11
2022/11/09 14:12:43;;;;;;;;;;;18.70;93.40;;;;;;5110868;28;19916;-11
2022/11/09 14:15:18;;;;;;;;;;;18.70;93.40;;;;;;5111919;28;19977;-11
2022/11/09 14:17:43;;;;;;;;;;;18.60;93.50;;;;;;5110578;28;19969;-11
2022/11/09 14:20:12;;;;;;;;;;;18.60;93.60;;;;;;5111571;28;19947;-11
2022/11/09 14:22:39;;;;;;;;;;;18.60;93.70;;;;;;5094112;28;19907;-12
2022/11/09 14:25:21;;;;;;;;;;;18.60;93.80;;;;;;5109920;28;19908;-11
2022/11/09 14:27:49;;;;;;;;;;;18.50;93.90;;;;;;5091053;28;19908;-11
2022/11/09 14:30:18;;;;;;;;;;;18.50;93.90;;;;;;5090284;28;20257;-11